Time;durP1;ratioP1;P1;durP2;ratioP2;P2;SDS_P1;SDS_P2;PMS_P1;PMS_P2;Temp;Humidity;BMP_temperature;BMP_pressure;BME280_temperature;BME280_humidity;BME280_pressure;Samples;Min_cycle;Max_cycle;Signal;HPM_P1;HPM_P2
2021/12/27 00:01:58;;;;;;;;;;;11.50;99.90;;;;;;5057434;28;19959;-77
2021/12/27 00:04:24;;;;;;;;;;;11.60;99.90;;;;;;5075304;28;19915;-77
2021/12/27 00:06:49;;;;;;;;;;;11.60;99.90;;;;;;5074874;28;20383;-79
2021/12/27 00:09:15;;;;;;;;;;;11.50;99.90;;;;;;5074506;28;19909;-77
2021/12/27 00:11:41;;;;;;;;;;;11.50;99.90;;;;;;5057255;28;19914;-78
2021/12/27 00:14:06;;;;;;;;;;;11.50;99.90;;;;;;5074912;28;19909;-76
2021/12/27 00:16:32;;;;;;;;;;;11.50;99.90;;;;;;5075083;28;19951;-77
2021/12/27 00:18:58;;;;;;;;;;;11.50;99.90;;;;;;5074549;28;19908;-79
2021/12/27 00:21:23;;;;;;;;;;;11.50;99.90;;;;;;5075108;28;19936;-79
2021/12/27 00:23:49;;;;;;;;;;;11.50;99.90;;;;;;5074972;28;19908;-78
2021/12/27 00:26:14;;;;;;;;;;;11.60;99.90;;;;;;5074639;28;20292;-77
2021/12/27 00:28:40;;;;;;;;;;;11.60;99.90;;;;;;5087128;28;19957;-77
2021/12/27 00:31:06;;;;;;;;;;;11.60;99.90;;;;;;5095066;28;20368;-76
2021/12/27 00:33:31;;;;;;;;;;;11.60;99.90;;;;;;5070865;28;19916;-78
2021/12/27 00:35:57;;;;;;;;;;;11.60;99.90;;;;;;5094952;28;19971;-78
2021/12/27 00:38:23;;;;;;;;;;;11.60;99.90;;;;;;5094488;28;20368;-76
2021/12/27 00:40:48;;;;;;;;;;;11.60;99.90;;;;;;5094769;28;19908;-79
2021/12/27 00:43:16;;;;;;;;;;;11.50;99.90;;;;;;5094838;28;19916;-79
2021/12/27 00:45:42;;;;;;;;;;;11.60;99.90;;;;;;5094760;28;19908;-78
2021/12/27 00:48:07;;;;;;;;;;;11.60;99.90;;;;;;5094353;28;19930;-80
2021/12/27 00:50:33;;;;;;;;;;;11.60;99.90;;;;;;5094779;28;19951;-78
2021/12/27 00:52:59;;;;;;;;;;;11.50;99.90;;;;;;5059068;28;20347;-76
2021/12/27 00:55:24;;;;;;;;;;;11.60;99.90;;;;;;5074016;28;19915;-77
2021/12/27 00:57:53;;;;;;;;;;;11.60;99.90;;;;;;5049356;28;19920;-78
2021/12/27 01:00:20;;;;;;;;;;;11.60;99.90;;;;;;5073926;28;20007;-80
2021/12/27 01:02:46;;;;;;;;;;;11.60;99.90;;;;;;5074200;28;20322;-77
2021/12/27 01:05:12;;;;;;;;;;;11.60;99.90;;;;;;5073856;28;19996;-80
2021/12/27 01:07:38;;;;;;;;;;;11.60;99.90;;;;;;5073801;28;20380;-77
2021/12/27 01:10:22;;;;;;;;;;;11.60;99.90;;;;;;5055925;28;19908;-76
2021/12/27 01:13:19;;;;;;;;;;;11.60;99.90;;;;;;5074064;28;19908;-79
2021/12/27 01:15:51;;;;;;;;;;;11.60;99.90;;;;;;5055582;28;20404;-77
2021/12/27 01:18:17;;;;;;;;;;;11.60;99.90;;;;;;5073345;28;19931;-79
2021/12/27 01:20:43;;;;;;;;;;;11.50;99.90;;;;;;5073925;28;19913;-80
2021/12/27 01:23:09;;;;;;;;;;;11.50;99.90;;;;;;5073825;28;20277;-79
2021/12/27 01:25:35;;;;;;;;;;;11.50;99.90;;;;;;5073662;28;19909;-79
2021/12/27 01:28:00;;;;;;;;;;;11.50;99.90;;;;;;5073181;28;19919;-79
2021/12/27 01:30:26;;;;;;;;;;;11.40;99.90;;;;;;5073772;28;19991;-76
2021/12/27 01:32:56;;;;;;;;;;;11.40;99.90;;;;;;5073834;28;20000;-80
2021/12/27 01:35:23;;;;;;;;;;;11.40;99.90;;;;;;5073941;28;19909;-77
2021/12/27 01:37:50;;;;;;;;;;;11.40;99.90;;;;;;5073274;28;19909;-77
2021/12/27 01:40:19;;;;;;;;;;;11.40;99.90;;;;;;5055903;28;20349;-79
2021/12/27 01:43:08;;;;;;;;;;;11.40;99.90;;;;;;5055695;28;19915;-78
2021/12/27 01:45:35;;;;;;;;;;;11.30;99.90;;;;;;5073611;28;19991;-77
2021/12/27 01:48:00;;;;;;;;;;;11.30;99.90;;;;;;5073133;28;19912;-76
2021/12/27 01:50:27;;;;;;;;;;;11.30;99.90;;;;;;5073207;28;19916;-77
2021/12/27 01:52:53;;;;;;;;;;;11.20;99.90;;;;;;5073556;28;20007;-78
2021/12/27 01:55:18;;;;;;;;;;;11.20;99.90;;;;;;5073401;28;19951;-77
2021/12/27 01:57:44;;;;;;;;;;;11.20;99.90;;;;;;5053521;28;19970;-77
2021/12/27 02:00:10;;;;;;;;;;;11.30;99.90;;;;;;5055075;28;19908;-77
2021/12/27 02:02:35;;;;;;;;;;;11.20;99.90;;;;;;5073146;28;19909;-79
2021/12/27 02:05:01;;;;;;;;;;;11.20;99.90;;;;;;5073399;28;19912;-78
2021/12/27 02:07:26;;;;;;;;;;;11.20;99.90;;;;;;5072820;28;19913;-77
2021/12/27 02:10:02;;;;;;;;;;;11.20;99.90;;;;;;5073332;28;20326;-78
2021/12/27 02:12:28;;;;;;;;;;;11.20;99.90;;;;;;5055051;28;19908;-77
2021/12/27 02:14:54;;;;;;;;;;;11.20;99.90;;;;;;5072881;28;19921;-77
2021/12/27 02:17:20;;;;;;;;;;;11.10;99.90;;;;;;5084468;28;19919;-79
2021/12/27 02:19:52;;;;;;;;;;;11.10;99.90;;;;;;5093403;28;19908;-78
2021/12/27 02:22:18;;;;;;;;;;;11.10;99.90;;;;;;5093332;28;19915;-81
2021/12/27 02:24:44;;;;;;;;;;;11.00;99.90;;;;;;5093352;28;19908;-80
2021/12/27 02:27:14;;;;;;;;;;;10.90;99.90;;;;;;5092938;28;20040;-81
2021/12/27 02:29:40;;;;;;;;;;;10.90;99.90;;;;;;5096616;28;19908;-81
2021/12/27 02:32:06;;;;;;;;;;;10.90;99.90;;;;;;5079295;28;19958;-82
2021/12/27 02:34:31;;;;;;;;;;;10.90;99.90;;;;;;5097260;28;20416;-82
2021/12/27 02:36:57;;;;;;;;;;;10.90;99.90;;;;;;5097134;28;19994;-80
2021/12/27 02:39:24;;;;;;;;;;;10.90;99.90;;;;;;5097258;28;19912;-82
2021/12/27 02:41:49;;;;;;;;;;;10.90;99.90;;;;;;5097246;28;19908;-81
2021/12/27 02:44:15;;;;;;;;;;;10.90;99.90;;;;;;5097085;28;19916;-81
2021/12/27 02:46:40;;;;;;;;;;;10.90;99.90;;;;;;5096760;28;20299;-82
2021/12/27 02:49:06;;;;;;;;;;;10.90;99.90;;;;;;5097052;28;19908;-81
2021/12/27 02:51:32;;;;;;;;;;;10.90;99.90;;;;;;5097101;28;19915;-80
2021/12/27 02:53:57;;;;;;;;;;;10.90;99.90;;;;;;5097151;28;19908;-81
2021/12/27 02:56:23;;;;;;;;;;;10.90;99.90;;;;;;5075437;28;19916;-81
2021/12/27 02:58:49;;;;;;;;;;;10.90;99.90;;;;;;5076405;28;19962;-81
2021/12/27 03:01:17;;;;;;;;;;;10.90;99.90;;;;;;5076472;28;20373;-80
2021/12/27 03:03:42;;;;;;;;;;;10.90;99.90;;;;;;5076551;28;19913;-84
2021/12/27 03:06:08;;;;;;;;;;;10.90;99.90;;;;;;5076463;28;19912;-79
2021/12/27 03:08:34;;;;;;;;;;;10.80;99.90;;;;;;5096659;28;19908;-79
2021/12/27 03:11:01;;;;;;;;;;;10.80;99.90;;;;;;5096766;28;19962;-81
2021/12/27 03:13:28;;;;;;;;;;;10.90;99.90;;;;;;5096435;28;19995;-80
2021/12/27 03:15:54;;;;;;;;;;;10.90;99.90;;;;;;5096221;28;20467;-83
2021/12/27 03:18:20;;;;;;;;;;;10.80;99.90;;;;;;5096113;28;19957;-79
2021/12/27 03:20:46;;;;;;;;;;;10.80;99.90;;;;;;5096481;28;20334;-82
2021/12/27 03:23:12;;;;;;;;;;;10.80;99.90;;;;;;5096608;28;19916;-80
2021/12/27 03:25:39;;;;;;;;;;;10.80;99.90;;;;;;5096260;28;19908;-85
2021/12/27 03:28:05;;;;;;;;;;;10.80;99.90;;;;;;5095895;28;19912;-81
2021/12/27 03:30:30;;;;;;;;;;;10.80;99.90;;;;;;5096251;28;19908;-82
2021/12/27 03:32:56;;;;;;;;;;;10.80;99.90;;;;;;5096328;28;19993;-81
2021/12/27 03:35:27;;;;;;;;;;;10.80;99.90;;;;;;5096304;28;20137;-82
2021/12/27 03:37:54;;;;;;;;;;;10.70;99.90;;;;;;5095807;28;19960;-81
2021/12/27 03:40:20;;;;;;;;;;;10.80;99.90;;;;;;5095543;28;19940;-81
2021/12/27 03:42:50;;;;;;;;;;;10.70;99.90;;;;;;5077883;28;19965;-81
2021/12/27 03:45:18;;;;;;;;;;;10.70;99.90;;;;;;5077682;28;19908;-81
2021/12/27 03:47:43;;;;;;;;;;;10.70;99.90;;;;;;5083438;28;20296;-83
2021/12/27 03:50:09;;;;;;;;;;;10.70;99.90;;;;;;5057452;28;19909;-81
2021/12/27 03:52:35;;;;;;;;;;;10.70;99.90;;;;;;5075725;28;19909;-81
2021/12/27 03:55:00;;;;;;;;;;;10.70;99.90;;;;;;5057720;28;19908;-80
2021/12/27 03:57:26;;;;;;;;;;;10.70;99.90;;;;;;5038027;28;20027;-80
2021/12/27 04:00:15;;;;;;;;;;;10.60;99.90;;;;;;5075232;28;19908;-80
2021/12/27 04:02:37;;;;;;;;;;;10.70;99.90;;;;;;5075270;28;20284;-81
2021/12/27 04:05:04;;;;;;;;;;;10.60;99.90;;;;;;5075485;28;19914;-82
2021/12/27 04:07:33;;;;;;;;;;;10.70;99.90;;;;;;5057036;28;19919;-81
2021/12/27 04:09:59;;;;;;;;;;;10.60;99.90;;;;;;5075365;28;20296;-81
2021/12/27 04:12:25;;;;;;;;;;;10.60;99.90;;;;;;5075342;28;19908;-83
2021/12/27 04:14:50;;;;;;;;;;;10.60;99.90;;;;;;5074863;28;19921;-80
2021/12/27 04:17:16;;;;;;;;;;;10.60;99.90;;;;;;5057048;28;20361;-81
2021/12/27 04:19:41;;;;;;;;;;;10.60;99.90;;;;;;5075193;28;19912;-80
2021/12/27 04:22:07;;;;;;;;;;;10.50;99.90;;;;;;5075114;28;19936;-82
2021/12/27 04:24:33;;;;;;;;;;;10.50;99.90;;;;;;5075025;28;20319;-81
2021/12/27 04:26:58;;;;;;;;;;;10.50;99.90;;;;;;5074671;28;19923;-81
2021/12/27 04:29:24;;;;;;;;;;;10.50;99.90;;;;;;5075034;28;19951;-82
2021/12/27 04:31:49;;;;;;;;;;;10.50;99.90;;;;;;5074989;28;19915;-80
2021/12/27 04:34:15;;;;;;;;;;;10.50;99.90;;;;;;5074809;28;20389;-81
2021/12/27 04:36:40;;;;;;;;;;;10.40;99.90;;;;;;5074582;28;19912;-82
2021/12/27 04:39:08;;;;;;;;;;;10.40;99.90;;;;;;5056945;28;19908;-82
2021/12/27 04:41:33;;;;;;;;;;;10.40;99.90;;;;;;5074748;28;20281;-82
2021/12/27 04:43:59;;;;;;;;;;;10.30;99.90;;;;;;5074457;28;19912;-81
2021/12/27 04:46:24;;;;;;;;;;;10.40;99.90;;;;;;5074541;28;20383;-80
2021/12/27 04:48:52;;;;;;;;;;;10.40;99.90;;;;;;5074055;28;19952;-80
2021/12/27 04:51:20;;;;;;;;;;;10.50;99.90;;;;;;5073977;28;19998;-81
2021/12/27 04:53:46;;;;;;;;;;;10.50;99.90;;;;;;5074142;28;19909;-80
2021/12/27 04:56:12;;;;;;;;;;;10.50;99.90;;;;;;5074415;28;19958;-79
2021/12/27 04:58:37;;;;;;;;;;;10.60;99.90;;;;;;5055053;28;19916;-80
2021/12/27 05:01:03;;;;;;;;;;;10.50;99.90;;;;;;5074183;28;19909;-80
2021/12/27 05:03:29;;;;;;;;;;;10.60;99.90;;;;;;5074386;28;20013;-80
2021/12/27 05:05:54;;;;;;;;;;;10.60;99.90;;;;;;5074299;28;19915;-82
2021/12/27 05:08:20;;;;;;;;;;;10.60;99.90;;;;;;5073799;28;19931;-79
2021/12/27 05:10:46;;;;;;;;;;;10.60;99.90;;;;;;5074139;28;20034;-80
2021/12/27 05:13:19;;;;;;;;;;;10.60;99.90;;;;;;5111222;27;19916;-82
2021/12/27 05:15:45;;;;;;;;;;;10.60;99.90;;;;;;5111326;28;20006;-83
2021/12/27 05:18:11;;;;;;;;;;;10.70;99.90;;;;;;5110825;28;19939;-81
2021/12/27 05:20:37;;;;;;;;;;;10.70;99.90;;;;;;5111387;28;19908;-85
2021/12/27 05:23:02;;;;;;;;;;;10.80;99.90;;;;;;5111171;28;20291;-82
2021/12/27 05:25:28;;;;;;;;;;;10.80;99.90;;;;;;5110976;28;19908;-81
2021/12/27 05:27:54;;;;;;;;;;;10.80;99.90;;;;;;5110888;28;19908;-83
2021/12/27 05:30:19;;;;;;;;;;;10.80;99.90;;;;;;5109366;28;20351;-82
2021/12/27 05:32:45;;;;;;;;;;;10.80;99.90;;;;;;5111133;28;20015;-83
2021/12/27 05:35:11;;;;;;;;;;;10.90;99.90;;;;;;5110860;28;19912;-82
2021/12/27 05:37:37;;;;;;;;;;;10.90;99.90;;;;;;5110604;28;19950;-81
2021/12/27 05:40:06;;;;;;;;;;;10.90;99.90;;;;;;5109468;28;20261;-82
2021/12/27 05:42:32;;;;;;;;;;;10.90;99.90;;;;;;5110853;28;19915;-82
2021/12/27 05:44:58;;;;;;;;;;;11.00;99.90;;;;;;5110614;28;20324;-80
2021/12/27 05:47:23;;;;;;;;;;;11.00;99.90;;;;;;5110338;28;19958;-85
2021/12/27 05:49:49;;;;;;;;;;;11.00;99.90;;;;;;5110535;28;19908;-80
2021/12/27 05:52:15;;;;;;;;;;;11.00;99.90;;;;;;5110474;28;19919;-84
2021/12/27 05:54:40;;;;;;;;;;;11.00;99.90;;;;;;5110681;28;20265;-81
2021/12/27 05:57:06;;;;;;;;;;;11.10;99.90;;;;;;5085076;28;19927;-84
2021/12/27 05:59:31;;;;;;;;;;;11.10;99.90;;;;;;5069618;28;19916;-84
2021/12/27 06:01:57;;;;;;;;;;;11.10;99.90;;;;;;5069869;28;20316;-81
2021/12/27 06:04:23;;;;;;;;;;;11.20;99.90;;;;;;5069739;28;19978;-82
2021/12/27 06:06:48;;;;;;;;;;;11.30;99.90;;;;;;5069860;28;19909;-79
2021/12/27 06:09:14;;;;;;;;;;;11.40;99.90;;;;;;5068247;28;19916;-83
2021/12/27 06:11:40;;;;;;;;;;;11.40;99.90;;;;;;5076111;28;19959;-82
2021/12/27 06:14:05;;;;;;;;;;;11.40;99.90;;;;;;5089473;28;20318;-82
2021/12/27 06:16:31;;;;;;;;;;;11.50;99.90;;;;;;5088352;28;19915;-81
2021/12/27 06:18:56;;;;;;;;;;;11.50;99.90;;;;;;5089211;28;19909;-80
2021/12/27 06:21:22;;;;;;;;;;;11.40;99.90;;;;;;5089629;28;19915;-80
2021/12/27 06:23:48;;;;;;;;;;;11.40;99.90;;;;;;5080981;28;20389;-80
2021/12/27 06:26:14;;;;;;;;;;;11.40;99.90;;;;;;5075788;28;19908;-82
2021/12/27 06:28:39;;;;;;;;;;;11.40;99.90;;;;;;5075534;28;20274;-81
2021/12/27 06:31:05;;;;;;;;;;;11.50;99.90;;;;;;5075884;28;20372;-83
2021/12/27 06:33:30;;;;;;;;;;;11.40;99.90;;;;;;5075878;28;19912;-85
2021/12/27 06:35:56;;;;;;;;;;;11.50;99.90;;;;;;5075933;28;19915;-79
2021/12/27 06:38:22;;;;;;;;;;;11.50;99.90;;;;;;5075372;28;20351;-83
2021/12/27 06:40:48;;;;;;;;;;;11.50;99.90;;;;;;5075599;28;20384;-80
2021/12/27 06:43:13;;;;;;;;;;;11.50;99.90;;;;;;5091239;28;19966;-83
2021/12/27 06:45:39;;;;;;;;;;;11.50;99.90;;;;;;5075551;28;20014;-83
2021/12/27 06:48:05;;;;;;;;;;;11.40;99.90;;;;;;5070635;28;19916;-81
2021/12/27 06:50:31;;;;;;;;;;;11.50;99.90;;;;;;5055293;28;19948;-79
2021/12/27 06:52:56;;;;;;;;;;;11.40;99.90;;;;;;5055653;28;19912;-81
2021/12/27 06:55:22;;;;;;;;;;;11.40;99.90;;;;;;5054193;28;19908;-80
2021/12/27 06:57:49;;;;;;;;;;;11.30;99.90;;;;;;5042692;28;19912;-81
2021/12/27 07:00:15;;;;;;;;;;;11.40;99.90;;;;;;5075072;28;19908;-84
2021/12/27 07:02:41;;;;;;;;;;;11.30;99.90;;;;;;5075274;28;19913;-82
2021/12/27 07:05:07;;;;;;;;;;;11.40;99.90;;;;;;5075455;28;20383;-82
2021/12/27 07:07:33;;;;;;;;;;;11.40;99.90;;;;;;5075045;28;19908;-80
2021/12/27 07:09:58;;;;;;;;;;;11.30;99.90;;;;;;5074150;28;19915;-81
2021/12/27 07:12:24;;;;;;;;;;;11.40;99.90;;;;;;5074922;28;19920;-81
2021/12/27 07:14:50;;;;;;;;;;;11.40;99.90;;;;;;5073532;28;20000;-79
2021/12/27 07:17:15;;;;;;;;;;;11.40;99.90;;;;;;5074788;28;19909;-84
2021/12/27 07:19:41;;;;;;;;;;;11.30;99.90;;;;;;5075084;28;19908;-79
2021/12/27 07:22:07;;;;;;;;;;;11.40;99.90;;;;;;5073760;28;19921;-81
2021/12/27 07:24:33;;;;;;;;;;;11.40;99.90;;;;;;5073587;28;19917;-82
2021/12/27 07:26:59;;;;;;;;;;;11.50;99.90;;;;;;5074910;28;20361;-79
2021/12/27 07:29:24;;;;;;;;;;;11.50;99.90;;;;;;5069807;28;19931;-81
2021/12/27 07:31:50;;;;;;;;;;;11.60;99.90;;;;;;5055082;28;19917;-80
2021/12/27 07:34:19;;;;;;;;;;;11.60;99.90;;;;;;5054406;28;20383;-81
2021/12/27 07:36:45;;;;;;;;;;;11.60;99.90;;;;;;5052857;28;19908;-80
2021/12/27 07:39:11;;;;;;;;;;;11.60;99.90;;;;;;5070774;28;19913;-79
2021/12/27 07:41:36;;;;;;;;;;;11.60;99.90;;;;;;5074546;28;19908;-80
2021/12/27 07:44:03;;;;;;;;;;;11.70;99.90;;;;;;5074476;28;19958;-81
2021/12/27 07:46:29;;;;;;;;;;;11.60;99.90;;;;;;5074543;28;19909;-80
2021/12/27 07:48:54;;;;;;;;;;;11.60;99.90;;;;;;5073892;28;19908;-82
2021/12/27 07:51:20;;;;;;;;;;;11.60;99.90;;;;;;5074408;28;19916;-80
2021/12/27 07:53:46;;;;;;;;;;;11.70;99.90;;;;;;5073057;28;20432;-82
2021/12/27 07:56:12;;;;;;;;;;;11.70;99.90;;;;;;5074364;28;20369;-81
2021/12/27 07:58:37;;;;;;;;;;;11.70;99.90;;;;;;5049795;28;19923;-81
2021/12/27 08:01:03;;;;;;;;;;;11.60;99.90;;;;;;5052838;28;19951;-83
2021/12/27 08:03:29;;;;;;;;;;;11.60;99.90;;;;;;5054149;28;19912;-79
2021/12/27 08:05:55;;;;;;;;;;;11.60;99.90;;;;;;5052738;28;19909;-80
2021/12/27 08:08:20;;;;;;;;;;;11.70;99.90;;;;;;5061209;28;19920;-80
2021/12/27 08:10:46;;;;;;;;;;;11.80;99.90;;;;;;5073884;28;20038;-81
2021/12/27 08:13:12;;;;;;;;;;;11.80;99.90;;;;;;5073538;28;20405;-81
2021/12/27 08:15:38;;;;;;;;;;;11.70;99.90;;;;;;5073990;28;19908;-82
2021/12/27 08:18:04;;;;;;;;;;;11.70;99.90;;;;;;5073614;28;19908;-82
2021/12/27 08:20:29;;;;;;;;;;;11.70;99.90;;;;;;5073980;28;19930;-82
2021/12/27 08:22:55;;;;;;;;;;;11.60;99.90;;;;;;5073866;28;20280;-82
2021/12/27 08:25:20;;;;;;;;;;;11.60;99.90;;;;;;5073828;28;19919;-80
2021/12/27 08:27:46;;;;;;;;;;;11.60;99.90;;;;;;5073479;28;19909;-79
2021/12/27 08:30:13;;;;;;;;;;;11.70;99.90;;;;;;5073490;28;20010;-81
2021/12/27 08:32:40;;;;;;;;;;;11.70;99.90;;;;;;5073713;28;19962;-80
2021/12/27 08:35:06;;;;;;;;;;;11.70;99.90;;;;;;5073752;28;19908;-84
2021/12/27 08:37:32;;;;;;;;;;;11.70;99.90;;;;;;5073485;28;19909;-80
2021/12/27 08:39:58;;;;;;;;;;;11.70;99.90;;;;;;5072260;28;19934;-79
2021/12/27 08:42:24;;;;;;;;;;;11.80;99.90;;;;;;5072813;28;19908;-80
2021/12/27 08:44:50;;;;;;;;;;;11.70;99.90;;;;;;5072934;28;20388;-83
2021/12/27 08:47:15;;;;;;;;;;;11.80;99.90;;;;;;5074230;28;19909;-82
2021/12/27 08:49:41;;;;;;;;;;;12.00;99.90;;;;;;5073883;28;19913;-81
2021/12/27 08:52:07;;;;;;;;;;;12.30;99.90;;;;;;5073086;28;19916;-83
2021/12/27 08:54:33;;;;;;;;;;;12.40;99.90;;;;;;5074221;28;20381;-81
2021/12/27 08:56:59;;;;;;;;;;;12.80;99.90;;;;;;5073770;28;19923;-80
2021/12/27 08:59:24;;;;;;;;;;;13.10;99.90;;;;;;5054119;28;20397;-80
2021/12/27 09:01:50;;;;;;;;;;;13.30;99.90;;;;;;5073081;28;19938;-81
2021/12/27 09:04:16;;;;;;;;;;;13.30;99.90;;;;;;5073324;28;20365;-83
2021/12/27 09:06:42;;;;;;;;;;;13.60;99.90;;;;;;5073361;28;19944;-81
2021/12/27 09:09:07;;;;;;;;;;;13.90;99.90;;;;;;5072826;28;19966;-83
2021/12/27 09:11:33;;;;;;;;;;;14.20;99.90;;;;;;5073104;28;19927;-82
2021/12/27 09:13:59;;;;;;;;;;;14.40;99.90;;;;;;5073027;28;19942;-80
2021/12/27 09:16:25;;;;;;;;;;;14.70;99.90;;;;;;5073305;28;20335;-81
2021/12/27 09:18:50;;;;;;;;;;;14.80;99.90;;;;;;5072761;28;19956;-82
2021/12/27 09:21:16;;;;;;;;;;;14.70;99.90;;;;;;5073018;28;20375;-79
2021/12/27 09:23:41;;;;;;;;;;;14.60;99.90;;;;;;5073335;28;19962;-82
2021/12/27 09:26:07;;;;;;;;;;;14.60;99.90;;;;;;5071493;28;19912;-80
2021/12/27 09:28:33;;;;;;;;;;;14.40;99.90;;;;;;5072897;28;20388;-78
2021/12/27 09:30:59;;;;;;;;;;;14.10;99.90;;;;;;5073044;28;19940;-79
2021/12/27 09:33:25;;;;;;;;;;;13.80;99.90;;;;;;5073137;28;19912;-82
2021/12/27 09:35:50;;;;;;;;;;;13.70;99.90;;;;;;5073056;28;19920;-80
2021/12/27 09:38:16;;;;;;;;;;;13.70;99.90;;;;;;5072453;28;19916;-79
2021/12/27 09:40:42;;;;;;;;;;;13.90;99.90;;;;;;5072993;28;19916;-81
2021/12/27 09:43:08;;;;;;;;;;;13.80;99.90;;;;;;5072856;28;20292;-81
2021/12/27 09:45:33;;;;;;;;;;;13.70;99.90;;;;;;5072555;28;19909;-81
2021/12/27 09:47:59;;;;;;;;;;;13.70;99.90;;;;;;5072580;28;19995;-83
2021/12/27 09:50:27;;;;;;;;;;;13.60;99.90;;;;;;5072628;28;20384;-81
2021/12/27 09:52:53;;;;;;;;;;;13.60;99.90;;;;;;5071476;28;19920;-82
2021/12/27 09:55:19;;;;;;;;;;;13.60;99.90;;;;;;5072893;28;19908;-78
2021/12/27 09:57:44;;;;;;;;;;;13.60;99.90;;;;;;5072638;28;20022;-79
2021/12/27 10:00:11;;;;;;;;;;;13.50;99.90;;;;;;5056930;28;19974;-79
2021/12/27 10:02:37;;;;;;;;;;;13.60;99.90;;;;;;5076144;28;19996;-79
2021/12/27 10:05:03;;;;;;;;;;;13.60;99.90;;;;;;5076416;28;19908;-83
2021/12/27 10:07:29;;;;;;;;;;;13.60;99.90;;;;;;5076492;28;19953;-81
2021/12/27 10:09:58;;;;;;;;;;;13.70;99.90;;;;;;5075829;28;19908;-81
2021/12/27 10:12:23;;;;;;;;;;;13.70;99.90;;;;;;5074831;28;19944;-82
2021/12/27 10:14:55;;;;;;;;;;;13.60;99.90;;;;;;5076165;28;19909;-82
2021/12/27 10:17:23;;;;;;;;;;;13.40;99.90;;;;;;5076316;28;19944;-81
2021/12/27 10:19:49;;;;;;;;;;;13.40;99.90;;;;;;5074490;28;19915;-80
2021/12/27 10:22:15;;;;;;;;;;;13.40;99.90;;;;;;5076164;28;19916;-81
2021/12/27 10:24:40;;;;;;;;;;;13.50;99.90;;;;;;5076135;28;19913;-80
2021/12/27 10:27:06;;;;;;;;;;;13.70;99.90;;;;;;5076116;28;20007;-81
2021/12/27 10:29:32;;;;;;;;;;;13.70;99.90;;;;;;5075505;28;19916;-82
2021/12/27 10:31:59;;;;;;;;;;;14.10;99.90;;;;;;5074731;28;20025;-81
2021/12/27 10:34:29;;;;;;;;;;;14.90;99.90;;;;;;5074640;28;20438;-79
2021/12/27 10:37:03;;;;;;;;;;;14.90;99.90;;;;;;5075783;28;19912;-80
2021/12/27 10:39:55;;;;;;;;;;;14.50;99.90;;;;;;5075439;28;19954;-80
2021/12/27 10:42:20;;;;;;;;;;;14.00;99.90;;;;;;5072604;28;19951;-82
2021/12/27 10:44:46;;;;;;;;;;;13.70;99.90;;;;;;5075527;28;20395;-78
2021/12/27 10:47:31;;;;;;;;;;;13.60;99.90;;;;;;5075784;28;19912;-81
2021/12/27 10:50:03;;;;;;;;;;;13.50;99.90;;;;;;5075271;28;19915;-78
2021/12/27 10:52:41;;;;;;;;;;;13.30;99.90;;;;;;5075577;28;19997;-79
2021/12/27 10:55:07;;;;;;;;;;;13.30;99.90;;;;;;5075578;28;20274;-81
2021/12/27 10:57:33;;;;;;;;;;;13.40;99.90;;;;;;5075558;28;19916;-79
2021/12/27 11:00:13;;;;;;;;;;;13.50;99.90;;;;;;5056201;28;20003;-83
2021/12/27 11:02:39;;;;;;;;;;;13.40;99.90;;;;;;5075428;28;19908;-82
2021/12/27 11:05:15;;;;;;;;;;;13.40;99.90;;;;;;5075533;28;19909;-79
2021/12/27 11:07:41;;;;;;;;;;;13.50;99.90;;;;;;5075344;28;19983;-80
2021/12/27 11:10:07;;;;;;;;;;;14.00;99.90;;;;;;5074878;28;20408;-82
2021/12/27 11:12:33;;;;;;;;;;;14.90;99.90;;;;;;5074817;28;19921;-79
2021/12/27 11:14:58;;;;;;;;;;;17.00;99.90;;;;;;5075132;28;19908;-79
2021/12/27 11:17:24;;;;;;;;;;;18.50;99.90;;;;;;5073772;28;19909;-82
2021/12/27 11:19:50;;;;;;;;;;;18.60;99.90;;;;;;5074723;28;19974;-82
2021/12/27 11:22:15;;;;;;;;;;;17.50;99.90;;;;;;5075129;28;20318;-78
2021/12/27 11:24:43;;;;;;;;;;;16.70;99.90;;;;;;5074981;28;19913;-81
2021/12/27 11:27:12;;;;;;;;;;;16.50;99.90;;;;;;5073753;28;19912;-80
2021/12/27 11:29:38;;;;;;;;;;;16.30;99.90;;;;;;5074357;28;20018;-82
2021/12/27 11:32:22;;;;;;;;;;;17.20;99.90;;;;;;5074933;28;20399;-81
2021/12/27 11:34:58;;;;;;;;;;;17.60;99.90;;;;;;5074820;28;19908;-81
2021/12/27 11:37:34;;;;;;;;;;;17.40;99.90;;;;;;5074592;28;19916;-80
2021/12/27 11:40:08;;;;;;;;;;;19.10;99.90;;;;;;5074229;28;19915;-81
2021/12/27 11:42:53;;;;;;;;;;;20.30;98.80;;;;;;5074647;28;19958;-80
2021/12/27 11:45:37;;;;;;;;;;;19.10;98.40;;;;;;5073027;28;20434;-79
2021/12/27 11:48:10;;;;;;;;;;;19.10;99.90;;;;;;5073272;28;19999;-81
2021/12/27 11:50:54;;;;;;;;;;;19.40;98.10;;;;;;5074174;28;20399;-80
2021/12/27 11:53:26;;;;;;;;;;;18.90;98.90;;;;;;5074388;28;19912;-81
2021/12/27 11:55:51;;;;;;;;;;;17.30;99.90;;;;;;5074239;28;19920;-81
2021/12/27 11:58:44;;;;;;;;;;;17.30;99.90;;;;;;5074011;28;19912;-79
2021/12/27 12:01:36;;;;;;;;;;;16.50;99.90;;;;;;5070904;28;20015;-79
2021/12/27 12:04:02;;;;;;;;;;;15.70;99.90;;;;;;5070967;28;20034;-82
2021/12/27 12:06:41;;;;;;;;;;;15.90;99.90;;;;;;5074150;28;20384;-80
2021/12/27 12:09:11;;;;;;;;;;;16.50;99.90;;;;;;5072542;28;19908;-82
2021/12/27 12:11:37;;;;;;;;;;;17.10;99.90;;;;;;5072490;28;19921;-81
2021/12/27 12:14:21;;;;;;;;;;;16.80;99.90;;;;;;5073804;28;19955;-79
2021/12/27 12:16:47;;;;;;;;;;;16.40;99.90;;;;;;5072617;28;20369;-80
2021/12/27 12:19:13;;;;;;;;;;;16.00;99.90;;;;;;5073662;28;19940;-82
2021/12/27 12:21:42;;;;;;;;;;;15.70;99.90;;;;;;5073420;28;19909;-81
2021/12/27 12:24:10;;;;;;;;;;;15.50;99.90;;;;;;5073867;28;19919;-79
2021/12/27 12:26:46;;;;;;;;;;;15.40;99.90;;;;;;5073497;28;20400;-80
2021/12/27 12:29:12;;;;;;;;;;;15.60;99.90;;;;;;5073353;28;20359;-80
2021/12/27 12:31:38;;;;;;;;;;;16.40;99.90;;;;;;5072402;28;20010;-79
2021/12/27 12:34:10;;;;;;;;;;;18.30;99.90;;;;;;5073677;28;19936;-81
2021/12/27 12:36:50;;;;;;;;;;;18.60;99.90;;;;;;5073659;28;19913;-80
2021/12/27 12:39:16;;;;;;;;;;;18.10;99.90;;;;;;5073294;28;19909;-81
2021/12/27 12:41:42;;;;;;;;;;;17.30;99.90;;;;;;5073473;28;20391;-81
2021/12/27 12:44:08;;;;;;;;;;;16.90;99.90;;;;;;5073435;28;19912;-80
2021/12/27 12:46:38;;;;;;;;;;;16.40;99.90;;;;;;5073516;28;19931;-80
2021/12/27 12:49:12;;;;;;;;;;;17.20;99.90;;;;;;5073170;28;19915;-81
2021/12/27 12:51:37;;;;;;;;;;;16.60;99.90;;;;;;5073499;28;20383;-82
2021/12/27 12:54:05;;;;;;;;;;;17.20;99.90;;;;;;5073475;28;19909;-79
2021/12/27 12:56:32;;;;;;;;;;;16.10;99.90;;;;;;5073242;28;19916;-80
2021/12/27 12:58:58;;;;;;;;;;;15.50;99.90;;;;;;5073207;28;19915;-79
2021/12/27 13:01:24;;;;;;;;;;;15.20;99.90;;;;;;5054223;28;19916;-79
2021/12/27 13:03:54;;;;;;;;;;;15.40;99.90;;;;;;5073346;28;19915;-82
2021/12/27 13:06:20;;;;;;;;;;;16.80;99.90;;;;;;5071843;28;19916;-80
2021/12/27 13:08:53;;;;;;;;;;;18.00;99.90;;;;;;5073071;28;19916;-81
2021/12/27 13:11:18;;;;;;;;;;;18.30;99.90;;;;;;5071743;28;20297;-81
2021/12/27 13:13:44;;;;;;;;;;;17.90;99.90;;;;;;5073189;28;19999;-82
2021/12/27 13:16:10;;;;;;;;;;;16.50;99.90;;;;;;5073164;28;19915;-79
2021/12/27 13:18:36;;;;;;;;;;;16.00;99.90;;;;;;5071705;28;19999;-81
2021/12/27 13:21:03;;;;;;;;;;;15.30;99.90;;;;;;5073109;28;20295;-80
2021/12/27 13:23:30;;;;;;;;;;;15.00;99.90;;;;;;5073314;28;19909;-80
2021/12/27 13:25:57;;;;;;;;;;;14.70;99.90;;;;;;5072922;28;19908;-80
2021/12/27 13:28:24;;;;;;;;;;;14.70;99.90;;;;;;5073178;28;20293;-80
2021/12/27 13:30:55;;;;;;;;;;;14.40;99.90;;;;;;5072588;28;19916;-81
2021/12/27 13:33:22;;;;;;;;;;;14.60;99.90;;;;;;5073931;28;19912;-79
2021/12/27 13:35:48;;;;;;;;;;;15.20;99.90;;;;;;5077091;28;19909;-82
2021/12/27 13:38:21;;;;;;;;;;;15.80;99.90;;;;;;5075437;28;19958;-79
2021/12/27 13:40:54;;;;;;;;;;;16.10;99.90;;;;;;5076585;28;20349;-78
2021/12/27 13:43:20;;;;;;;;;;;15.60;99.90;;;;;;5076826;28;19947;-81
2021/12/27 13:45:46;;;;;;;;;;;14.90;99.90;;;;;;5076875;28;20341;-81
2021/12/27 13:48:12;;;;;;;;;;;14.50;99.90;;;;;;5076758;28;19912;-80
2021/12/27 13:50:38;;;;;;;;;;;13.70;99.90;;;;;;5075205;28;19908;-80
2021/12/27 13:53:11;;;;;;;;;;;13.30;99.90;;;;;;5077023;28;19919;-83
2021/12/27 13:55:37;;;;;;;;;;;13.30;99.90;;;;;;5076808;28;20002;-81
2021/12/27 13:58:13;;;;;;;;;;;13.20;99.90;;;;;;5075440;28;19908;-83
2021/12/27 14:00:39;;;;;;;;;;;13.10;99.90;;;;;;5076137;28;19908;-79
2021/12/27 14:03:05;;;;;;;;;;;13.10;99.90;;;;;;5057532;28;20403;-81
2021/12/27 14:05:32;;;;;;;;;;;12.90;99.90;;;;;;5076634;28;19909;-81
2021/12/27 14:08:08;;;;;;;;;;;13.00;99.90;;;;;;5076628;28;19909;-82
2021/12/27 14:10:34;;;;;;;;;;;13.00;99.90;;;;;;5074973;28;19939;-82
2021/12/27 14:13:00;;;;;;;;;;;13.00;99.90;;;;;;5075910;28;20308;-82
2021/12/27 14:15:27;;;;;;;;;;;13.00;99.90;;;;;;5076419;28;19962;-80
2021/12/27 14:17:53;;;;;;;;;;;13.00;99.90;;;;;;5076440;28;19948;-83